createdAt,value
2019-03-15T00:02:20.204Z,5.69
2019-03-15T00:12:24.862Z,5.94
2019-03-15T00:22:29.850Z,5.87
2019-03-15T00:32:34.704Z,5.81
2019-03-15T00:42:39.282Z,5.81
2019-03-15T00:52:44.327Z,5.75
2019-03-15T01:02:48.246Z,5.75
2019-03-15T01:12:52.134Z,5.69
2019-03-15T01:22:56.147Z,5.69
2019-03-15T01:33:01.289Z,5.56
2019-03-15T01:43:05.150Z,5.56
2019-03-15T01:53:09.662Z,5.69
2019-03-15T02:03:13.670Z,5.69
2019-03-15T02:13:19.020Z,5.62
2019-03-15T02:23:24.085Z,5.56
2019-03-15T02:33:30.305Z,5.50
2019-03-15T02:43:34.271Z,5.56
2019-03-15T02:53:38.189Z,5.56
2019-03-15T03:03:43.145Z,5.62
2019-03-15T03:13:47.221Z,5.62
2019-03-15T03:23:52.302Z,5.56
2019-03-15T03:33:56.211Z,5.69
2019-03-15T03:44:01.000Z,5.44
2019-03-15T03:54:06.259Z,5.31
2019-03-15T04:04:10.220Z,5.25
2019-03-15T04:14:15.299Z,5.31
2019-03-15T04:24:19.098Z,5.06
2019-03-15T04:34:23.677Z,5.31
2019-03-15T04:44:28.365Z,5.25
2019-03-15T04:54:33.244Z,5.06
2019-03-15T05:04:37.139Z,5.25
2019-03-15T05:14:41.120Z,5.25
2019-03-15T05:24:45.112Z,5.06
2019-03-15T05:34:49.659Z,5.25
2019-03-15T05:44:54.261Z,5.37
2019-03-15T05:54:58.112Z,5.06
2019-03-15T06:05:04.242Z,5.31
2019-03-15T06:15:09.095Z,5.50
2019-03-15T06:25:14.237Z,5.62
2019-03-15T06:35:18.372Z,5.87
2019-03-15T06:45:22.098Z,5.87
2019-03-15T06:55:26.115Z,5.87
2019-03-15T07:05:30.120Z,6.00
2019-03-15T07:15:34.684Z,5.75
2019-03-15T07:25:39.324Z,6.00
2019-03-15T07:35:43.149Z,5.94
2019-03-15T07:45:47.107Z,5.87
2019-03-15T07:55:51.106Z,6.31
2019-03-15T08:05:55.092Z,6.25
2019-03-15T08:16:00.761Z,5.94
2019-03-15T08:26:05.314Z,5.87
2019-03-15T08:36:09.076Z,6.25
2019-03-15T08:46:13.365Z,6.37
2019-03-15T08:56:17.087Z,6.19
2019-03-15T09:06:22.105Z,6.25
2019-03-15T09:16:26.654Z,7.25
2019-03-15T09:26:31.239Z,7.25
2019-03-15T09:36:49.072Z,6.94
2019-03-15T09:46:41.280Z,7.00
2019-03-15T09:56:45.104Z,7.31
2019-03-15T10:06:49.647Z,7.56
2019-03-15T10:16:54.289Z,7.81
2019-03-15T10:26:58.115Z,8.00
2019-03-15T10:37:02.515Z,7.87
2019-03-15T10:47:06.133Z,8.44
2019-03-15T10:57:10.178Z,8.31
2019-03-15T11:07:14.146Z,8.38
2019-03-15T11:17:18.138Z,9.13
2019-03-15T11:27:22.692Z,8.38
2019-03-15T11:37:27.260Z,7.37
2019-03-15T11:47:45.908Z,7.44
2019-03-15T11:57:37.285Z,8.25
2019-03-15T12:07:42.180Z,8.75
2019-03-15T12:17:46.251Z,9.81
2019-03-15T12:27:50.220Z,9.13
2019-03-15T12:37:55.130Z,10.06
2019-03-15T12:47:59.203Z,9.44
2019-03-15T12:58:04.230Z,10.44
2019-03-15T13:08:08.342Z,9.19
2019-03-15T13:18:12.090Z,8.38
2019-03-15T13:28:16.657Z,8.75
2019-03-15T13:38:20.257Z,9.06
2019-03-15T13:48:24.130Z,9.94
2019-03-15T13:58:28.653Z,9.31
2019-03-15T14:08:33.261Z,9.25
2019-03-15T14:18:37.130Z,8.81
2019-03-15T14:28:41.642Z,8.56
2019-03-15T14:38:46.298Z,9.38
2019-03-15T14:48:50.111Z,9.81
2019-03-15T14:58:55.245Z,10.63
2019-03-15T15:08:59.067Z,10.38
2019-03-15T15:19:04.115Z,10.31
2019-03-15T15:29:08.841Z,9.25
2019-03-15T15:39:13.586Z,8.94
2019-03-15T15:49:17.223Z,8.63
2019-03-15T15:59:21.097Z,8.44
2019-03-15T16:09:25.130Z,8.31
2019-03-15T16:19:29.652Z,8.13
2019-03-15T16:29:34.273Z,7.75
2019-03-15T16:39:38.633Z,7.81
2019-03-15T16:49:43.249Z,7.69
2019-03-15T16:59:47.120Z,7.44
2019-03-15T17:09:51.631Z,7.31
2019-03-15T17:19:56.297Z,7.00
2019-03-15T17:30:01.101Z,7.12
2019-03-15T17:40:09.229Z,7.00
2019-03-15T17:50:17.064Z,7.00
2019-03-15T18:00:38.236Z,6.94
2019-03-15T18:10:42.099Z,6.87
2019-03-15T18:20:47.087Z,7.00
2019-03-15T18:30:51.854Z,7.00
2019-03-15T18:40:56.637Z,7.06
2019-03-15T18:51:01.285Z,6.94
2019-03-15T19:01:05.099Z,6.94
2019-03-15T19:11:10.263Z,6.87
2019-03-15T19:21:14.131Z,6.75
2019-03-15T19:31:19.103Z,6.81
2019-03-15T19:45:44.230Z,6.69
2019-03-15T19:55:48.081Z,6.81
2019-03-15T20:05:53.099Z,6.69
2019-03-15T20:15:57.129Z,6.94
2019-03-15T20:26:02.263Z,7.06
2019-03-15T20:36:07.121Z,7.06
2019-03-15T20:46:15.655Z,7.12
2019-03-15T20:56:18.324Z,7.06
2019-03-15T21:06:22.240Z,6.94
2019-03-15T21:16:27.221Z,7.00
2019-03-15T21:26:32.322Z,7.06
2019-03-15T21:36:36.199Z,7.00
2019-03-15T21:46:41.308Z,7.06
2019-03-15T21:56:45.239Z,6.94
2019-03-15T22:06:49.228Z,6.94
2019-03-15T22:16:54.131Z,6.81
2019-03-15T22:26:58.329Z,7.37
2019-03-15T22:37:02.221Z,7.00
2019-03-15T22:47:07.305Z,6.87
2019-03-15T22:57:11.169Z,6.69
2019-03-15T23:07:16.007Z,6.81
2019-03-15T23:17:21.272Z,5.56
2019-03-15T23:27:25.223Z,4.50
2019-03-15T23:37:29.215Z,4.69
2019-03-15T23:47:33.243Z,4.69
2019-03-15T23:57:37.160Z,4.50
